Ryouei Maru — JL6703 — position and weather

sailwx.info

Track history (hours):
 
Tides and Currents Weather Stations Pressure Air Temp Water Temp Dewpoint Dewpoint Depression Visibility Wind Speed Wind Dir Waves Ship Positions

Ryouei Maru

Last reported at 2014-Sep-18 15:33 UTC. Time now 2014-Sep-18 15:41 UTC.
Position N 34°27' E 135°10'.

Length 95 m; draft 5 m.

Type: Cargo ship. MMSI: 431501749.

Date/timePositionNaut miles runAvg speedWind from/ knotsBaromVisibWave heightAir tempDewpointWater temp
2014-Sep-18 15:33N 34°27' E 135°10'1211.8
2014-Sep-18 14:30N 34°18' E 135°00'1311.4
2014-Sep-18 13:19N 34°04' E 135°00'22911.0
2014-Sep-17 16:25N 34°59' E 139°31'1214.1
2014-Sep-17 15:33N 35°07' E 139°42'1211.6
2014-Sep-17 14:33N 35°18' E 139°44'1111.2
2014-Sep-17 13:33N 35°28' E 139°50'9 9.0
2014-Sep-17 12:33N 35°37' E 139°47'0 0.1
2014-Sep-17 11:31N 35°37' E 139°47'0 0.0
2014-Sep-17 10:10N 35°37' E 139°47'0 0.0
2014-Sep-17 09:28N 35°37' E 139°47'0 0.0
2014-Sep-17 08:22N 35°37' E 139°47'0 0.0
2014-Sep-17 07:28N 35°37' E 139°47'0 0.0
2014-Sep-17 06:28N 35°37' E 139°47'0 0.0
2014-Sep-17 05:31N 35°37' E 139°47'0 0.0
2014-Sep-17 04:28N 35°37' E 139°47'0 0.0
2014-Sep-17 03:25N 35°37' E 139°47'0 0.0
2014-Sep-17 02:28N 35°37' E 139°47'0 0.0
2014-Sep-17 01:22N 35°37' E 139°47'0 0.0
2014-Sep-17 00:28N 35°37' E 139°47'0 0.0
2014-Sep-16 23:31N 35°37' E 139°47'0 0.0
2014-Sep-16 22:31N 35°37' E 139°47'2 1.8
2014-Sep-16 21:33N 35°37' E 139°49'8 7.6
2014-Sep-16 20:33N 35°30' E 139°53'1211.5
2014-Sep-16 19:33N 35°20' E 139°44'1111.4
2014-Sep-16 18:33N 35°09' E 139°47'1311.5
2014-Sep-16 17:26N 34°56' E 139°44'1111.4
2014-Sep-16 16:28N 34°52' E 139°57'1011.2
2014-Sep-16 15:33N 34°57' E 140°07'2310.4
2014-Sep-16 13:23N 35°10' E 140°30'2612.5
2014-Sep-16 11:19N 35°31' E 140°49'  
2014-Sep-13 21:32N 36°16' E 141°01'1212.2
2014-Sep-13 20:32N 36°04' E 140°60'1212.3
2014-Sep-13 19:33N 35°52' E 140°58'1212.3
2014-Sep-13 18:33N 35°40' E 140°56'1313.0
2014-Sep-13 17:33N 35°29' E 140°47'1513.1
2014-Sep-13 16:26N 35°17' E 140°37'2513.0
2014-Sep-13 14:33N 34°59' E 140°16'1514.5
2014-Sep-13 13:32N 34°52' E 140°00'1514.0
2014-Sep-13 12:27N 34°45' E 139°44'24011.3
2014-Sep-12 15:07N 33°57' E 134°59'814.1
2014-Sep-12 14:34N 34°04' E 134°58'1413.4
2014-Sep-12 13:31N 34°18' E 134°58'1212.8
2014-Sep-12 12:33N 34°28' E 135°07'1413.6
2014-Sep-12 11:33N 34°37' E 135°20'4 3.7
2014-Sep-12 10:23N 34°37' E 135°26'0 0.0
2014-Sep-12 09:29N 34°37' E 135°26'0 0.0
2014-Sep-12 08:29N 34°37' E 135°26'0 0.0
2014-Sep-12 07:29N 34°37' E 135°26'0 0.0
2014-Sep-12 06:29N 34°37' E 135°26'0 0.0
2014-Sep-12 02:28N 34°37' E 135°26'0 0.0
2014-Sep-12 01:28N 34°37' E 135°26'0 0.0
2014-Sep-12 00:22N 34°37' E 135°26'0 0.1
2014-Sep-11 23:28N 34°37' E 135°26'0 0.0
2014-Sep-11 22:23N 34°37' E 135°26'4 5.1
2014-Sep-11 21:31N 34°35' E 135°21'1211.9
2014-Sep-11 20:33N 34°27' E 135°11'1111.3
2014-Sep-11 19:32N 34°19' E 135°01'1010.4
2014-Sep-11 18:33N 34°09' E 134°60'1211.8
2014-Sep-11 17:33N 33°57' E 135°01'23511.0
2014-Sep-10 20:10N 34°43' E 139°40'1710.1
2014-Sep-10 18:32N 34°51' E 139°57'9 9.3
2014-Sep-10 17:32N 34°56' E 140°07'9 9.2
2014-Sep-10 16:33N 35°00' E 140°17'18 9.0
2014-Sep-10 14:33N 35°13' E 140°33'1211.8
2014-Sep-10 13:31N 35°23' E 140°40'  
Track history (hours):
 
Tides and Currents Weather Stations Pressure Air Temp Water Temp Dewpoint Dewpoint Depression Visibility Wind Speed Wind Dir Waves Ship Positions

Ryouei Maru

Last reported at 2014-Sep-18 15:33 UTC. Time now 2014-Sep-18 15:41 UTC.
Position N 34°27' E 135°10'.

Length 95 m; draft 5 m.

Type: Cargo ship. MMSI: 431501749.

Date/timePositionNaut miles runAvg speedWind from/ knotsBaromVisibWave heightAir tempDewpointWater temp
2014-Sep-18 15:33N 34°27' E 135°10'1211.8
2014-Sep-18 14:30N 34°18' E 135°00'1311.4
2014-Sep-18 13:19N 34°04' E 135°00'22911.0
2014-Sep-17 16:25N 34°59' E 139°31'1214.1
2014-Sep-17 15:33N 35°07' E 139°42'1211.6
2014-Sep-17 14:33N 35°18' E 139°44'1111.2
2014-Sep-17 13:33N 35°28' E 139°50'9 9.0
2014-Sep-17 12:33N 35°37' E 139°47'0 0.1
2014-Sep-17 11:31N 35°37' E 139°47'0 0.0
2014-Sep-17 10:10N 35°37' E 139°47'0 0.0
2014-Sep-17 09:28N 35°37' E 139°47'0 0.0
2014-Sep-17 08:22N 35°37' E 139°47'0 0.0
2014-Sep-17 07:28N 35°37' E 139°47'0 0.0
2014-Sep-17 06:28N 35°37' E 139°47'0 0.0
2014-Sep-17 05:31N 35°37' E 139°47'0 0.0
2014-Sep-17 04:28N 35°37' E 139°47'0 0.0
2014-Sep-17 03:25N 35°37' E 139°47'0 0.0
2014-Sep-17 02:28N 35°37' E 139°47'0 0.0
2014-Sep-17 01:22N 35°37' E 139°47'0 0.0
2014-Sep-17 00:28N 35°37' E 139°47'0 0.0
2014-Sep-16 23:31N 35°37' E 139°47'0 0.0
2014-Sep-16 22:31N 35°37' E 139°47'2 1.8
2014-Sep-16 21:33N 35°37' E 139°49'8 7.6
2014-Sep-16 20:33N 35°30' E 139°53'1211.5
2014-Sep-16 19:33N 35°20' E 139°44'1111.4
2014-Sep-16 18:33N 35°09' E 139°47'1311.5
2014-Sep-16 17:26N 34°56' E 139°44'1111.4
2014-Sep-16 16:28N 34°52' E 139°57'1011.2
2014-Sep-16 15:33N 34°57' E 140°07'2310.4
2014-Sep-16 13:23N 35°10' E 140°30'2612.5
2014-Sep-16 11:19N 35°31' E 140°49'  
2014-Sep-13 21:32N 36°16' E 141°01'1212.2
2014-Sep-13 20:32N 36°04' E 140°60'1212.3
2014-Sep-13 19:33N 35°52' E 140°58'1212.3
2014-Sep-13 18:33N 35°40' E 140°56'1313.0
2014-Sep-13 17:33N 35°29' E 140°47'1513.1
2014-Sep-13 16:26N 35°17' E 140°37'2513.0
2014-Sep-13 14:33N 34°59' E 140°16'1514.5
2014-Sep-13 13:32N 34°52' E 140°00'1514.0
2014-Sep-13 12:27N 34°45' E 139°44'24011.3
2014-Sep-12 15:07N 33°57' E 134°59'814.1
2014-Sep-12 14:34N 34°04' E 134°58'1413.4
2014-Sep-12 13:31N 34°18' E 134°58'1212.8
2014-Sep-12 12:33N 34°28' E 135°07'1413.6
2014-Sep-12 11:33N 34°37' E 135°20'4 3.7
2014-Sep-12 10:23N 34°37' E 135°26'0 0.0
2014-Sep-12 09:29N 34°37' E 135°26'0 0.0
2014-Sep-12 08:29N 34°37' E 135°26'0 0.0
2014-Sep-12 07:29N 34°37' E 135°26'0 0.0
2014-Sep-12 06:29N 34°37' E 135°26'0 0.0
2014-Sep-12 02:28N 34°37' E 135°26'0 0.0
2014-Sep-12 01:28N 34°37' E 135°26'0 0.0
2014-Sep-12 00:22N 34°37' E 135°26'0 0.1
2014-Sep-11 23:28N 34°37' E 135°26'0 0.0
2014-Sep-11 22:23N 34°37' E 135°26'4 5.1
2014-Sep-11 21:31N 34°35' E 135°21'1211.9
2014-Sep-11 20:33N 34°27' E 135°11'1111.3
2014-Sep-11 19:32N 34°19' E 135°01'1010.4
2014-Sep-11 18:33N 34°09' E 134°60'1211.8
2014-Sep-11 17:33N 33°57' E 135°01'23511.0
2014-Sep-10 20:10N 34°43' E 139°40'1710.1
2014-Sep-10 18:32N 34°51' E 139°57'9 9.3
2014-Sep-10 17:32N 34°56' E 140°07'9 9.2
2014-Sep-10 16:33N 35°00' E 140°17'18 9.0
2014-Sep-10 14:33N 35°13' E 140°33'1211.8
2014-Sep-10 13:31N 35°23' E 140°40'  

Dump ship's entire track history